sensor_id;sensor_type;location;lat;lon;timestamp;P1;durP1;ratioP1;P2;durP2;ratioP2
10517;SDS011;5307;42.548;22.968;2023-05-10T00:01:29;5.72;;;3.88;;
10517;SDS011;5307;42.548;22.968;2023-05-10T00:03:56;6.45;;;3.92;;
10517;SDS011;5307;42.548;22.968;2023-05-10T00:06:24;3.80;;;3.40;;
10517;SDS011;5307;42.548;22.968;2023-05-10T00:08:51;4.38;;;3.78;;
10517;SDS011;5307;42.548;22.968;2023-05-10T00:11:18;4.90;;;4.03;;
10517;SDS011;5307;42.548;22.968;2023-05-10T00:13:45;6.97;;;3.67;;
10517;SDS011;5307;42.548;22.968;2023-05-10T00:16:15;4.18;;;3.78;;
10517;SDS011;5307;42.548;22.968;2023-05-10T00:18:42;4.95;;;4.07;;
10517;SDS011;5307;42.548;22.968;2023-05-10T00:21:09;7.60;;;4.50;;
10517;SDS011;5307;42.548;22.968;2023-05-10T00:23:37;4.18;;;3.78;;
10517;SDS011;5307;42.548;22.968;2023-05-10T00:26:04;6.55;;;4.25;;
10517;SDS011;5307;42.548;22.968;2023-05-10T00:28:31;5.88;;;4.13;;
10517;SDS011;5307;42.548;22.968;2023-05-10T00:30:58;4.72;;;4.22;;
10517;SDS011;5307;42.548;22.968;2023-05-10T00:33:25;5.28;;;4.22;;
10517;SDS011;5307;42.548;22.968;2023-05-10T00:35:52;4.60;;;4.10;;
10517;SDS011;5307;42.548;22.968;2023-05-10T00:38:19;4.07;;;3.67;;
10517;SDS011;5307;42.548;22.968;2023-05-10T00:40:47;5.57;;;4.55;;
10517;SDS011;5307;42.548;22.968;2023-05-10T00:43:14;7.65;;;5.40;;
10517;SDS011;5307;42.548;22.968;2023-05-10T00:45:40;5.43;;;4.80;;
10517;SDS011;5307;42.548;22.968;2023-05-10T00:48:07;4.82;;;4.20;;
10517;SDS011;5307;42.548;22.968;2023-05-10T00:50:34;5.20;;;4.32;;
10517;SDS011;5307;42.548;22.968;2023-05-10T00:53:01;4.57;;;4.05;;
10517;SDS011;5307;42.548;22.968;2023-05-10T00:55:29;4.68;;;4.28;;
10517;SDS011;5307;42.548;22.968;2023-05-10T00:57:58;5.03;;;4.53;;
10517;SDS011;5307;42.548;22.968;2023-05-10T01:00:25;4.85;;;4.35;;
10517;SDS011;5307;42.548;22.968;2023-05-10T01:02:52;5.25;;;4.32;;
10517;SDS011;5307;42.548;22.968;2023-05-10T01:05:19;4.82;;;4.32;;
10517;SDS011;5307;42.548;22.968;2023-05-10T01:07:46;5.40;;;4.50;;
10517;SDS011;5307;42.548;22.968;2023-05-10T01:10:13;4.85;;;4.35;;
10517;SDS011;5307;42.548;22.968;2023-05-10T01:12:41;5.78;;;4.68;;
10517;SDS011;5307;42.548;22.968;2023-05-10T01:15:12;5.60;;;4.85;;
10517;SDS011;5307;42.548;22.968;2023-05-10T01:17:42;5.15;;;4.65;;
10517;SDS011;5307;42.548;22.968;2023-05-10T01:20:11;4.82;;;4.30;;
10517;SDS011;5307;42.548;22.968;2023-05-10T01:35:02;5.20;;;4.63;;
10517;SDS011;5307;42.548;22.968;2023-05-10T01:37:36;6.75;;;4.80;;
10517;SDS011;5307;42.548;22.968;2023-05-10T01:40:10;4.75;;;4.25;;
10517;SDS011;5307;42.548;22.968;2023-05-10T01:42:46;5.00;;;4.47;;
10517;SDS011;5307;42.548;22.968;2023-05-10T01:45:18;6.32;;;5.13;;
10517;SDS011;5307;42.548;22.968;2023-05-10T01:47:54;6.05;;;5.03;;
10517;SDS011;5307;42.548;22.968;2023-05-10T01:50:31;5.30;;;4.65;;
10517;SDS011;5307;42.548;22.968;2023-05-10T01:53:00;5.45;;;4.80;;
10517;SDS011;5307;42.548;22.968;2023-05-10T01:55:29;5.05;;;4.13;;
10517;SDS011;5307;42.548;22.968;2023-05-10T01:58:01;5.55;;;4.93;;
10517;SDS011;5307;42.548;22.968;2023-05-10T02:00:31;5.07;;;3.90;;
10517;SDS011;5307;42.548;22.968;2023-05-10T02:03:00;5.78;;;4.20;;
10517;SDS011;5307;42.548;22.968;2023-05-10T02:05:32;5.82;;;3.85;;
10517;SDS011;5307;42.548;22.968;2023-05-10T02:08:00;5.25;;;4.35;;
10517;SDS011;5307;42.548;22.968;2023-05-10T02:10:29;4.18;;;3.50;;
10517;SDS011;5307;42.548;22.968;2023-05-10T02:12:58;4.82;;;3.85;;
10517;SDS011;5307;42.548;22.968;2023-05-10T02:15:26;5.50;;;4.00;;
10517;SDS011;5307;42.548;22.968;2023-05-10T02:17:54;4.57;;;3.65;;
10517;SDS011;5307;42.548;22.968;2023-05-10T02:20:23;5.75;;;4.20;;
10517;SDS011;5307;42.548;22.968;2023-05-10T02:22:53;4.60;;;3.78;;
10517;SDS011;5307;42.548;22.968;2023-05-10T02:25:22;4.32;;;3.78;;
10517;SDS011;5307;42.548;22.968;2023-05-10T02:27:49;6.13;;;3.63;;
10517;SDS011;5307;42.548;22.968;2023-05-10T02:30:20;6.95;;;3.67;;
10517;SDS011;5307;42.548;22.968;2023-05-10T02:32:48;5.38;;;4.25;;
10517;SDS011;5307;42.548;22.968;2023-05-10T02:35:16;4.88;;;3.72;;
10517;SDS011;5307;42.548;22.968;2023-05-10T02:37:43;4.13;;;3.72;;
10517;SDS011;5307;42.548;22.968;2023-05-10T02:40:13;5.53;;;3.78;;
10517;SDS011;5307;42.548;22.968;2023-05-10T02:42:42;7.05;;;3.78;;
10517;SDS011;5307;42.548;22.968;2023-05-10T02:45:11;4.22;;;3.63;;
10517;SDS011;5307;42.548;22.968;2023-05-10T02:47:39;4.07;;;3.58;;
10517;SDS011;5307;42.548;22.968;2023-05-10T02:50:06;3.63;;;3.33;;
10517;SDS011;5307;42.548;22.968;2023-05-10T02:52:39;3.85;;;3.40;;
10517;SDS011;5307;42.548;22.968;2023-05-10T02:55:09;6.97;;;3.40;;
10517;SDS011;5307;42.548;22.968;2023-05-10T02:57:41;5.35;;;3.58;;
10517;SDS011;5307;42.548;22.968;2023-05-10T03:00:11;3.30;;;3.00;;
10517;SDS011;5307;42.548;22.968;2023-05-10T03:02:39;4.90;;;3.50;;
10517;SDS011;5307;42.548;22.968;2023-05-10T03:05:05;3.47;;;3.17;;
10517;SDS011;5307;42.548;22.968;2023-05-10T03:07:33;4.50;;;3.63;;
10517;SDS011;5307;42.548;22.968;2023-05-10T03:10:00;5.93;;;3.40;;
10517;SDS011;5307;42.548;22.968;2023-05-10T03:12:33;4.15;;;3.53;;
10517;SDS011;5307;42.548;22.968;2023-05-10T03:15:15;5.63;;;3.45;;
10517;SDS011;5307;42.548;22.968;2023-05-10T03:17:50;4.53;;;4.13;;
10517;SDS011;5307;42.548;22.968;2023-05-10T03:20:22;6.50;;;4.00;;
10517;SDS011;5307;42.548;22.968;2023-05-10T03:25:38;2.08;;;1.98;;
10517;SDS011;5307;42.548;22.968;2023-05-10T03:28:10;2.58;;;1.85;;
10517;SDS011;5307;42.548;22.968;2023-05-10T03:30:38;5.05;;;2.38;;
10517;SDS011;5307;42.548;22.968;2023-05-10T03:33:06;4.13;;;1.90;;
10517;SDS011;5307;42.548;22.968;2023-05-10T03:35:34;3.20;;;2.53;;
10517;SDS011;5307;42.548;22.968;2023-05-10T03:38:00;3.10;;;2.70;;
10517;SDS011;5307;42.548;22.968;2023-05-10T03:40:27;2.88;;;2.40;;
10517;SDS011;5307;42.548;22.968;2023-05-10T03:42:57;3.75;;;2.72;;
10517;SDS011;5307;42.548;22.968;2023-05-10T03:45:25;3.00;;;2.70;;
10517;SDS011;5307;42.548;22.968;2023-05-10T03:47:52;4.38;;;3.40;;
10517;SDS011;5307;42.548;22.968;2023-05-10T03:50:19;4.30;;;2.90;;
10517;SDS011;5307;42.548;22.968;2023-05-10T03:52:46;3.15;;;2.85;;
10517;SDS011;5307;42.548;22.968;2023-05-10T03:55:12;3.25;;;2.80;;
10517;SDS011;5307;42.548;22.968;2023-05-10T03:57:39;3.70;;;2.40;;
10517;SDS011;5307;42.548;22.968;2023-05-10T04:00:07;3.53;;;3.22;;
10517;SDS011;5307;42.548;22.968;2023-05-10T04:02:36;2.50;;;2.30;;
10517;SDS011;5307;42.548;22.968;2023-05-10T04:05:03;2.42;;;2.22;;
10517;SDS011;5307;42.548;22.968;2023-05-10T04:07:30;2.60;;;2.40;;
10517;SDS011;5307;42.548;22.968;2023-05-10T04:09:56;2.63;;;2.35;;
10517;SDS011;5307;42.548;22.968;2023-05-10T04:12:23;3.00;;;2.33;;
10517;SDS011;5307;42.548;22.968;2023-05-10T04:14:50;3.17;;;2.88;;
10517;SDS011;5307;42.548;22.968;2023-05-10T04:17:17;2.72;;;2.50;;
10517;SDS011;5307;42.548;22.968;2023-05-10T04:19:45;4.05;;;2.63;;
10517;SDS011;5307;42.548;22.968;2023-05-10T04:22:12;6.22;;;3.90;;
10517;SDS011;5307;42.548;22.968;2023-05-10T04:24:38;3.22;;;2.65;;
10517;SDS011;5307;42.548;22.968;2023-05-10T04:27:05;3.50;;;3.20;;
10517;SDS011;5307;42.548;22.968;2023-05-10T04:29:32;3.65;;;3.22;;
10517;SDS011;5307;42.548;22.968;2023-05-10T04:31:59;5.00;;;3.35;;
10517;SDS011;5307;42.548;22.968;2023-05-10T04:34:26;4.07;;;2.92;;
10517;SDS011;5307;42.548;22.968;2023-05-10T04:36:54;4.38;;;3.58;;
10517;SDS011;5307;42.548;22.968;2023-05-10T04:39:20;4.03;;;3.63;;
10517;SDS011;5307;42.548;22.968;2023-05-10T04:41:47;3.80;;;3.40;;
10517;SDS011;5307;42.548;22.968;2023-05-10T04:44:14;10.23;;;4.97;;
10517;SDS011;5307;42.548;22.968;2023-05-10T04:46:40;5.03;;;3.75;;
10517;SDS011;5307;42.548;22.968;2023-05-10T04:49:07;4.97;;;3.38;;
10517;SDS011;5307;42.548;22.968;2023-05-10T04:51:34;5.35;;;2.70;;
10517;SDS011;5307;42.548;22.968;2023-05-10T04:54:02;2.75;;;2.47;;
10517;SDS011;5307;42.548;22.968;2023-05-10T04:56:29;3.45;;;2.70;;
10517;SDS011;5307;42.548;22.968;2023-05-10T04:58:56;4.35;;;2.70;;
10517;SDS011;5307;42.548;22.968;2023-05-10T05:01:22;4.63;;;2.60;;
10517;SDS011;5307;42.548;22.968;2023-05-10T05:03:49;5.88;;;3.78;;
10517;SDS011;5307;42.548;22.968;2023-05-10T05:06:17;4.15;;;3.05;;
10517;SDS011;5307;42.548;22.968;2023-05-10T05:08:45;6.85;;;4.95;;
10517;SDS011;5307;42.548;22.968;2023-05-10T05:11:15;7.30;;;4.93;;
10517;SDS011;5307;42.548;22.968;2023-05-10T05:13:43;7.47;;;5.82;;
10517;SDS011;5307;42.548;22.968;2023-05-10T05:16:10;8.75;;;6.50;;
10517;SDS011;5307;42.548;22.968;2023-05-10T05:18:37;8.48;;;6.95;;
10517;SDS011;5307;42.548;22.968;2023-05-10T05:21:13;9.02;;;6.10;;
10517;SDS011;5307;42.548;22.968;2023-05-10T05:23:41;8.18;;;6.80;;
10517;SDS011;5307;42.548;22.968;2023-05-10T05:26:07;9.55;;;6.45;;
10517;SDS011;5307;42.548;22.968;2023-05-10T05:28:36;7.40;;;5.78;;
10517;SDS011;5307;42.548;22.968;2023-05-10T05:31:03;8.18;;;6.57;;
10517;SDS011;5307;42.548;22.968;2023-05-10T05:33:33;8.02;;;6.32;;
10517;SDS011;5307;42.548;22.968;2023-05-10T05:36:00;7.35;;;6.10;;
10517;SDS011;5307;42.548;22.968;2023-05-10T05:38:27;16.23;;;6.97;;
10517;SDS011;5307;42.548;22.968;2023-05-10T05:40:54;8.10;;;5.97;;
10517;SDS011;5307;42.548;22.968;2023-05-10T05:43:21;7.68;;;5.82;;
10517;SDS011;5307;42.548;22.968;2023-05-10T05:45:49;12.55;;;7.93;;
10517;SDS011;5307;42.548;22.968;2023-05-10T05:48:18;11.85;;;7.43;;
10517;SDS011;5307;42.548;22.968;2023-05-10T05:50:45;11.30;;;6.90;;
10517;SDS011;5307;42.548;22.968;2023-05-10T05:53:12;7.80;;;5.75;;
10517;SDS011;5307;42.548;22.968;2023-05-10T05:55:38;7.57;;;6.10;;
10517;SDS011;5307;42.548;22.968;2023-05-10T05:58:05;8.60;;;6.00;;
10517;SDS011;5307;42.548;22.968;2023-05-10T06:00:32;9.27;;;6.30;;
10517;SDS011;5307;42.548;22.968;2023-05-10T06:03:00;15.32;;;6.70;;
10517;SDS011;5307;42.548;22.968;2023-05-10T06:05:27;10.00;;;7.75;;
10517;SDS011;5307;42.548;22.968;2023-05-10T06:07:54;14.77;;;8.23;;
10517;SDS011;5307;42.548;22.968;2023-05-10T06:10:22;15.27;;;7.57;;
10517;SDS011;5307;42.548;22.968;2023-05-10T06:12:50;13.32;;;8.95;;
10517;SDS011;5307;42.548;22.968;2023-05-10T06:15:18;23.08;;;16.75;;
10517;SDS011;5307;42.548;22.968;2023-05-10T06:17:44;10.80;;;7.93;;
10517;SDS011;5307;42.548;22.968;2023-05-10T06:20:13;7.65;;;5.93;;
10517;SDS011;5307;42.548;22.968;2023-05-10T06:22:40;12.07;;;7.95;;
10517;SDS011;5307;42.548;22.968;2023-05-10T06:25:08;9.70;;;7.30;;
10517;SDS011;5307;42.548;22.968;2023-05-10T06:27:35;14.63;;;9.68;;
10517;SDS011;5307;42.548;22.968;2023-05-10T06:30:02;11.95;;;8.50;;
10517;SDS011;5307;42.548;22.968;2023-05-10T06:32:30;12.68;;;7.35;;
10517;SDS011;5307;42.548;22.968;2023-05-10T06:34:56;10.38;;;6.97;;
10517;SDS011;5307;42.548;22.968;2023-05-10T06:37:24;11.25;;;6.85;;
10517;SDS011;5307;42.548;22.968;2023-05-10T06:39:51;12.02;;;8.73;;
10517;SDS011;5307;42.548;22.968;2023-05-10T06:42:18;16.50;;;9.38;;
10517;SDS011;5307;42.548;22.968;2023-05-10T06:44:45;18.38;;;11.02;;
10517;SDS011;5307;42.548;22.968;2023-05-10T06:47:12;10.00;;;7.35;;
10517;SDS011;5307;42.548;22.968;2023-05-10T06:49:39;10.18;;;7.05;;
10517;SDS011;5307;42.548;22.968;2023-05-10T06:52:05;9.23;;;7.63;;
10517;SDS011;5307;42.548;22.968;2023-05-10T06:54:34;11.75;;;7.97;;
10517;SDS011;5307;42.548;22.968;2023-05-10T06:57:00;13.10;;;9.57;;
10517;SDS011;5307;42.548;22.968;2023-05-10T06:59:28;16.33;;;9.25;;
10517;SDS011;5307;42.548;22.968;2023-05-10T07:01:55;11.02;;;7.43;;
10517;SDS011;5307;42.548;22.968;2023-05-10T07:04:21;12.88;;;8.13;;
10517;SDS011;5307;42.548;22.968;2023-05-10T07:06:48;12.82;;;7.38;;
10517;SDS011;5307;42.548;22.968;2023-05-10T07:09:15;10.95;;;7.28;;
10517;SDS011;5307;42.548;22.968;2023-05-10T07:11:44;10.63;;;8.45;;
10517;SDS011;5307;42.548;22.968;2023-05-10T07:14:10;13.27;;;8.90;;
10517;SDS011;5307;42.548;22.968;2023-05-10T07:16:37;9.43;;;7.97;;
10517;SDS011;5307;42.548;22.968;2023-05-10T07:19:04;11.07;;;7.97;;
10517;SDS011;5307;42.548;22.968;2023-05-10T07:21:31;13.23;;;8.88;;
10517;SDS011;5307;42.548;22.968;2023-05-10T07:23:58;13.27;;;8.63;;
10517;SDS011;5307;42.548;22.968;2023-05-10T07:26:26;13.95;;;10.27;;
10517;SDS011;5307;42.548;22.968;2023-05-10T07:28:55;13.35;;;8.25;;
10517;SDS011;5307;42.548;22.968;2023-05-10T07:31:22;12.35;;;8.98;;
10517;SDS011;5307;42.548;22.968;2023-05-10T07:33:48;11.57;;;8.85;;
10517;SDS011;5307;42.548;22.968;2023-05-10T07:36:15;48.08;;;21.75;;
10517;SDS011;5307;42.548;22.968;2023-05-10T07:38:42;15.20;;;10.25;;
10517;SDS011;5307;42.548;22.968;2023-05-10T07:41:11;20.77;;;12.25;;
10517;SDS011;5307;42.548;22.968;2023-05-10T07:43:38;18.25;;;12.43;;
10517;SDS011;5307;42.548;22.968;2023-05-10T07:46:06;16.40;;;10.77;;
10517;SDS011;5307;42.548;22.968;2023-05-10T07:48:35;35.50;;;17.48;;
10517;SDS011;5307;42.548;22.968;2023-05-10T07:51:02;41.20;;;20.13;;
10517;SDS011;5307;42.548;22.968;2023-05-10T07:53:29;37.00;;;18.13;;
10517;SDS011;5307;42.548;22.968;2023-05-10T07:55:57;21.65;;;16.10;;
10517;SDS011;5307;42.548;22.968;2023-05-10T07:58:24;20.80;;;13.50;;
10517;SDS011;5307;42.548;22.968;2023-05-10T08:00:51;17.33;;;10.80;;
10517;SDS011;5307;42.548;22.968;2023-05-10T08:03:20;15.18;;;11.30;;
10517;SDS011;5307;42.548;22.968;2023-05-10T08:05:46;17.30;;;11.82;;
10517;SDS011;5307;42.548;22.968;2023-05-10T08:08:13;13.45;;;9.75;;
10517;SDS011;5307;42.548;22.968;2023-05-10T08:10:40;17.83;;;11.38;;
10517;SDS011;5307;42.548;22.968;2023-05-10T08:13:07;9.75;;;7.45;;
10517;SDS011;5307;42.548;22.968;2023-05-10T08:15:33;11.98;;;9.07;;
10517;SDS011;5307;42.548;22.968;2023-05-10T08:18:00;10.82;;;8.18;;
10517;SDS011;5307;42.548;22.968;2023-05-10T08:20:28;11.35;;;8.00;;
10517;SDS011;5307;42.548;22.968;2023-05-10T08:22:55;12.93;;;8.50;;
10517;SDS011;5307;42.548;22.968;2023-05-10T08:25:22;10.48;;;7.45;;
10517;SDS011;5307;42.548;22.968;2023-05-10T08:27:49;11.18;;;7.97;;
10517;SDS011;5307;42.548;22.968;2023-05-10T08:30:15;12.93;;;9.70;;
10517;SDS011;5307;42.548;22.968;2023-05-10T08:32:42;15.48;;;9.55;;
10517;SDS011;5307;42.548;22.968;2023-05-10T08:35:09;13.73;;;9.98;;
10517;SDS011;5307;42.548;22.968;2023-05-10T08:37:37;9.18;;;7.45;;
10517;SDS011;5307;42.548;22.968;2023-05-10T08:40:04;11.10;;;8.32;;
10517;SDS011;5307;42.548;22.968;2023-05-10T08:42:33;117.75;;;48.83;;
10517;SDS011;5307;42.548;22.968;2023-05-10T08:45:03;10.07;;;7.20;;
10517;SDS011;5307;42.548;22.968;2023-05-10T08:47:32;8.88;;;6.68;;
10517;SDS011;5307;42.548;22.968;2023-05-10T08:49:59;9.02;;;6.07;;
10517;SDS011;5307;42.548;22.968;2023-05-10T08:52:28;7.35;;;4.97;;
10517;SDS011;5307;42.548;22.968;2023-05-10T08:54:58;8.68;;;6.38;;
10517;SDS011;5307;42.548;22.968;2023-05-10T08:57:25;7.90;;;6.15;;
10517;SDS011;5307;42.548;22.968;2023-05-10T08:59:53;8.73;;;7.20;;
10517;SDS011;5307;42.548;22.968;2023-05-10T09:02:19;8.75;;;7.03;;
10517;SDS011;5307;42.548;22.968;2023-05-10T09:04:47;8.57;;;6.68;;
10517;SDS011;5307;42.548;22.968;2023-05-10T09:07:15;8.52;;;6.63;;
10517;SDS011;5307;42.548;22.968;2023-05-10T09:09:43;7.22;;;5.55;;
10517;SDS011;5307;42.548;22.968;2023-05-10T09:12:13;8.05;;;6.60;;
10517;SDS011;5307;42.548;22.968;2023-05-10T09:14:40;6.55;;;5.63;;
10517;SDS011;5307;42.548;22.968;2023-05-10T09:17:10;8.25;;;6.57;;
10517;SDS011;5307;42.548;22.968;2023-05-10T09:19:36;9.88;;;7.43;;
10517;SDS011;5307;42.548;22.968;2023-05-10T09:22:04;10.38;;;6.65;;
10517;SDS011;5307;42.548;22.968;2023-05-10T09:24:31;7.28;;;5.97;;
10517;SDS011;5307;42.548;22.968;2023-05-10T09:26:57;7.75;;;6.45;;
10517;SDS011;5307;42.548;22.968;2023-05-10T09:29:26;9.10;;;7.07;;
10517;SDS011;5307;42.548;22.968;2023-05-10T09:32:05;6.88;;;6.10;;
10517;SDS011;5307;42.548;22.968;2023-05-10T09:34:32;7.95;;;6.20;;
10517;SDS011;5307;42.548;22.968;2023-05-10T09:37:00;8.70;;;6.28;;
10517;SDS011;5307;42.548;22.968;2023-05-10T09:39:32;7.68;;;5.88;;
10517;SDS011;5307;42.548;22.968;2023-05-10T09:42:01;7.70;;;6.18;;
10517;SDS011;5307;42.548;22.968;2023-05-10T09:44:31;8.15;;;6.30;;
10517;SDS011;5307;42.548;22.968;2023-05-10T09:46:59;8.00;;;6.53;;
10517;SDS011;5307;42.548;22.968;2023-05-10T09:49:26;8.40;;;7.10;;
10517;SDS011;5307;42.548;22.968;2023-05-10T09:51:59;11.68;;;8.23;;
10517;SDS011;5307;42.548;22.968;2023-05-10T09:54:28;12.50;;;8.43;;
10517;SDS011;5307;42.548;22.968;2023-05-10T09:56:55;9.05;;;7.15;;
10517;SDS011;5307;42.548;22.968;2023-05-10T09:59:21;9.75;;;6.88;;
10517;SDS011;5307;42.548;22.968;2023-05-10T10:01:53;9.85;;;7.78;;
10517;SDS011;5307;42.548;22.968;2023-05-10T10:04:21;9.27;;;7.05;;
10517;SDS011;5307;42.548;22.968;2023-05-10T10:06:58;8.27;;;6.47;;
10517;SDS011;5307;42.548;22.968;2023-05-10T10:09:25;8.85;;;6.57;;
10517;SDS011;5307;42.548;22.968;2023-05-10T10:11:53;10.23;;;7.15;;
10517;SDS011;5307;42.548;22.968;2023-05-10T10:14:21;11.00;;;6.57;;
10517;SDS011;5307;42.548;22.968;2023-05-10T10:16:49;8.93;;;6.32;;
10517;SDS011;5307;42.548;22.968;2023-05-10T10:19:17;7.55;;;5.30;;
10517;SDS011;5307;42.548;22.968;2023-05-10T10:21:44;12.25;;;8.23;;
10517;SDS011;5307;42.548;22.968;2023-05-10T10:24:11;9.32;;;6.38;;
10517;SDS011;5307;42.548;22.968;2023-05-10T10:26:38;8.75;;;6.82;;
10517;SDS011;5307;42.548;22.968;2023-05-10T10:29:10;8.88;;;6.40;;
10517;SDS011;5307;42.548;22.968;2023-05-10T10:31:46;9.07;;;5.70;;
10517;SDS011;5307;42.548;22.968;2023-05-10T10:34:24;12.80;;;7.07;;
10517;SDS011;5307;42.548;22.968;2023-05-10T10:36:53;7.82;;;6.40;;
10517;SDS011;5307;42.548;22.968;2023-05-10T10:39:20;7.18;;;6.22;;
10517;SDS011;5307;42.548;22.968;2023-05-10T10:41:51;6.25;;;5.53;;
10517;SDS011;5307;42.548;22.968;2023-05-10T10:44:22;6.25;;;5.63;;
10517;SDS011;5307;42.548;22.968;2023-05-10T10:47:06;8.73;;;6.20;;
10517;SDS011;5307;42.548;22.968;2023-05-10T10:49:51;8.57;;;6.80;;
10517;SDS011;5307;42.548;22.968;2023-05-10T10:52:30;10.43;;;7.85;;
10517;SDS011;5307;42.548;22.968;2023-05-10T10:54:59;7.15;;;6.05;;
10517;SDS011;5307;42.548;22.968;2023-05-10T10:57:28;10.00;;;7.35;;
10517;SDS011;5307;42.548;22.968;2023-05-10T11:03:03;17.95;;;10.15;;
10517;SDS011;5307;42.548;22.968;2023-05-10T11:05:36;13.50;;;7.72;;
10517;SDS011;5307;42.548;22.968;2023-05-10T11:08:11;13.10;;;8.90;;
10517;SDS011;5307;42.548;22.968;2023-05-10T11:13:34;9.88;;;8.40;;
10517;SDS011;5307;42.548;22.968;2023-05-10T11:16:14;11.55;;;8.15;;
10517;SDS011;5307;42.548;22.968;2023-05-10T11:18:52;14.10;;;10.98;;
10517;SDS011;5307;42.548;22.968;2023-05-10T11:21:24;12.55;;;9.93;;
10517;SDS011;5307;42.548;22.968;2023-05-10T11:23:51;10.75;;;8.20;;
10517;SDS011;5307;42.548;22.968;2023-05-10T11:26:21;11.85;;;8.93;;
10517;SDS011;5307;42.548;22.968;2023-05-10T11:28:51;10.32;;;8.50;;
10517;SDS011;5307;42.548;22.968;2023-05-10T11:31:20;10.57;;;8.85;;
10517;SDS011;5307;42.548;22.968;2023-05-10T11:34:00;10.20;;;8.13;;
10517;SDS011;5307;42.548;22.968;2023-05-10T11:36:29;13.02;;;9.25;;
10517;SDS011;5307;42.548;22.968;2023-05-10T11:38:59;11.85;;;8.75;;
10517;SDS011;5307;42.548;22.968;2023-05-10T11:41:27;9.43;;;6.90;;
10517;SDS011;5307;42.548;22.968;2023-05-10T11:43:55;8.60;;;7.20;;
10517;SDS011;5307;42.548;22.968;2023-05-10T11:46:24;9.00;;;7.35;;
10517;SDS011;5307;42.548;22.968;2023-05-10T11:52:25;11.05;;;7.43;;
10517;SDS011;5307;42.548;22.968;2023-05-10T11:54:52;10.07;;;7.60;;
10517;SDS011;5307;42.548;22.968;2023-05-10T11:57:19;10.85;;;9.15;;
10517;SDS011;5307;42.548;22.968;2023-05-10T11:59:52;14.13;;;9.52;;
10517;SDS011;5307;42.548;22.968;2023-05-10T12:02:20;13.98;;;10.60;;
10517;SDS011;5307;42.548;22.968;2023-05-10T12:04:46;12.48;;;9.55;;
10517;SDS011;5307;42.548;22.968;2023-05-10T12:07:13;18.25;;;12.20;;
10517;SDS011;5307;42.548;22.968;2023-05-10T12:09:43;12.63;;;9.50;;
10517;SDS011;5307;42.548;22.968;2023-05-10T12:12:10;15.07;;;11.50;;
10517;SDS011;5307;42.548;22.968;2023-05-10T12:14:41;13.30;;;8.88;;
10517;SDS011;5307;42.548;22.968;2023-05-10T12:17:11;12.73;;;10.73;;
10517;SDS011;5307;42.548;22.968;2023-05-10T12:19:38;14.43;;;9.52;;
10517;SDS011;5307;42.548;22.968;2023-05-10T12:22:06;14.15;;;9.75;;
10517;SDS011;5307;42.548;22.968;2023-05-10T12:24:33;12.00;;;9.88;;
10517;SDS011;5307;42.548;22.968;2023-05-10T12:27:05;15.77;;;10.63;;
10517;SDS011;5307;42.548;22.968;2023-05-10T12:29:34;15.93;;;9.75;;
10517;SDS011;5307;42.548;22.968;2023-05-10T12:32:01;13.98;;;8.77;;
10517;SDS011;5307;42.548;22.968;2023-05-10T12:34:30;16.95;;;11.23;;
10517;SDS011;5307;42.548;22.968;2023-05-10T12:36:58;12.27;;;9.50;;
10517;SDS011;5307;42.548;22.968;2023-05-10T12:39:25;17.10;;;11.43;;
10517;SDS011;5307;42.548;22.968;2023-05-10T12:41:52;15.50;;;10.77;;
10517;SDS011;5307;42.548;22.968;2023-05-10T12:44:20;14.15;;;9.88;;
10517;SDS011;5307;42.548;22.968;2023-05-10T12:46:47;16.00;;;11.52;;
10517;SDS011;5307;42.548;22.968;2023-05-10T12:49:14;22.08;;;11.30;;
10517;SDS011;5307;42.548;22.968;2023-05-10T12:51:41;14.30;;;11.52;;
10517;SDS011;5307;42.548;22.968;2023-05-10T12:54:08;13.75;;;11.05;;
10517;SDS011;5307;42.548;22.968;2023-05-10T12:56:35;18.35;;;11.35;;
10517;SDS011;5307;42.548;22.968;2023-05-10T12:59:02;17.75;;;12.43;;
10517;SDS011;5307;42.548;22.968;2023-05-10T13:01:30;17.38;;;12.27;;
10517;SDS011;5307;42.548;22.968;2023-05-10T13:03:57;17.98;;;10.75;;
10517;SDS011;5307;42.548;22.968;2023-05-10T13:06:25;18.73;;;11.13;;
10517;SDS011;5307;42.548;22.968;2023-05-10T13:08:51;13.43;;;9.98;;
10517;SDS011;5307;42.548;22.968;2023-05-10T13:11:18;14.05;;;9.73;;
10517;SDS011;5307;42.548;22.968;2023-05-10T13:13:46;16.63;;;12.20;;
10517;SDS011;5307;42.548;22.968;2023-05-10T13:16:13;15.05;;;11.70;;
10517;SDS011;5307;42.548;22.968;2023-05-10T13:18:41;18.55;;;14.18;;
10517;SDS011;5307;42.548;22.968;2023-05-10T13:21:08;18.52;;;13.90;;
10517;SDS011;5307;42.548;22.968;2023-05-10T13:23:35;17.73;;;11.93;;
10517;SDS011;5307;42.548;22.968;2023-05-10T13:26:01;20.02;;;12.02;;
10517;SDS011;5307;42.548;22.968;2023-05-10T13:28:28;17.10;;;12.20;;
10517;SDS011;5307;42.548;22.968;2023-05-10T13:30:55;14.10;;;11.35;;
10517;SDS011;5307;42.548;22.968;2023-05-10T13:33:22;19.55;;;13.63;;
10517;SDS011;5307;42.548;22.968;2023-05-10T13:35:50;16.60;;;13.73;;
10517;SDS011;5307;42.548;22.968;2023-05-10T13:38:17;22.60;;;15.35;;
10517;SDS011;5307;42.548;22.968;2023-05-10T13:40:43;14.85;;;11.82;;
10517;SDS011;5307;42.548;22.968;2023-05-10T13:43:10;18.50;;;12.85;;
10517;SDS011;5307;42.548;22.968;2023-05-10T13:45:37;16.52;;;12.02;;
10517;SDS011;5307;42.548;22.968;2023-05-10T13:48:04;19.50;;;14.68;;
10517;SDS011;5307;42.548;22.968;2023-05-10T13:50:31;25.45;;;14.32;;
10517;SDS011;5307;42.548;22.968;2023-05-10T13:52:59;21.73;;;12.13;;
10517;SDS011;5307;42.548;22.968;2023-05-10T13:58:47;29.48;;;13.90;;
10517;SDS011;5307;42.548;22.968;2023-05-10T14:01:14;21.40;;;14.93;;
10517;SDS011;5307;42.548;22.968;2023-05-10T14:03:41;18.45;;;11.40;;
10517;SDS011;5307;42.548;22.968;2023-05-10T14:06:07;16.98;;;11.93;;
10517;SDS011;5307;42.548;22.968;2023-05-10T14:08:36;19.83;;;13.90;;
10517;SDS011;5307;42.548;22.968;2023-05-10T14:11:03;21.00;;;13.90;;
10517;SDS011;5307;42.548;22.968;2023-05-10T14:13:30;15.27;;;10.50;;
10517;SDS011;5307;42.548;22.968;2023-05-10T14:15:56;14.70;;;11.13;;
10517;SDS011;5307;42.548;22.968;2023-05-10T14:18:25;16.95;;;12.05;;
10517;SDS011;5307;42.548;22.968;2023-05-10T14:20:52;13.85;;;10.55;;
10517;SDS011;5307;42.548;22.968;2023-05-10T14:23:19;14.50;;;11.98;;
10517;SDS011;5307;42.548;22.968;2023-05-10T14:25:50;17.38;;;11.40;;
10517;SDS011;5307;42.548;22.968;2023-05-10T14:28:17;16.20;;;12.18;;
10517;SDS011;5307;42.548;22.968;2023-05-10T14:30:45;13.73;;;9.98;;
10517;SDS011;5307;42.548;22.968;2023-05-10T14:33:12;13.23;;;8.95;;
10517;SDS011;5307;42.548;22.968;2023-05-10T14:35:39;13.35;;;8.70;;
10517;SDS011;5307;42.548;22.968;2023-05-10T14:38:06;16.27;;;13.55;;
10517;SDS011;5307;42.548;22.968;2023-05-10T14:40:33;16.70;;;10.23;;
10517;SDS011;5307;42.548;22.968;2023-05-10T14:43:01;17.85;;;9.35;;
10517;SDS011;5307;42.548;22.968;2023-05-10T14:45:28;11.65;;;7.63;;
10517;SDS011;5307;42.548;22.968;2023-05-10T14:47:55;10.82;;;8.32;;
10517;SDS011;5307;42.548;22.968;2023-05-10T14:50:22;12.40;;;9.32;;
10517;SDS011;5307;42.548;22.968;2023-05-10T14:56:02;9.27;;;7.57;;
10517;SDS011;5307;42.548;22.968;2023-05-10T14:58:30;12.80;;;8.63;;
10517;SDS011;5307;42.548;22.968;2023-05-10T15:00:57;9.95;;;6.93;;
10517;SDS011;5307;42.548;22.968;2023-05-10T15:03:24;12.52;;;9.15;;
10517;SDS011;5307;42.548;22.968;2023-05-10T15:05:51;16.20;;;10.85;;
10517;SDS011;5307;42.548;22.968;2023-05-10T15:08:18;13.55;;;9.30;;
10517;SDS011;5307;42.548;22.968;2023-05-10T15:10:47;12.55;;;9.07;;
10517;SDS011;5307;42.548;22.968;2023-05-10T15:13:13;11.27;;;9.05;;
10517;SDS011;5307;42.548;22.968;2023-05-10T15:15:42;12.15;;;8.60;;